Time;durP1;ratioP1;P1;durP2;ratioP2;P2;SDS_P1;SDS_P2;PMS_P1;PMS_P2;Temp;Humidity;BMP_temperature;BMP_pressure;BME280_temperature;BME280_humidity;BME280_pressure;Samples;Min_cycle;Max_cycle;Signal;HPM_P1;HPM_P2
2023/01/29 00:01:55;;;;;;;10.03;7.90;;;;;;;;;;5047800;28;20229;-76
2023/01/29 00:04:22;;;;;;;9.43;7.60;;;;;;;;;;5047219;28;20718;-76
2023/01/29 00:06:50;;;;;;;9.77;7.67;;;;;;;;;;5048906;28;20225;-75
2023/01/29 00:09:17;;;;;;;10.00;8.10;;;;;;;;;;5047851;28;20221;-76
2023/01/29 00:11:45;;;;;;;9.20;7.73;;;;;;;;;;5049590;28;20222;-76
2023/01/29 00:14:15;;;;;;;9.60;7.70;;;;;;;;;;5059096;28;20263;-77
2023/01/29 00:16:42;;;;;;;11.40;8.63;;;;;;;;;;5047724;28;20202;-76
2023/01/29 00:19:09;;;;;;;11.80;8.40;;;;;;;;;;5028898;28;20209;-75
2023/01/29 00:21:36;;;;;;;11.03;8.90;;;;;;;;;;5050406;28;20324;-77
2023/01/29 00:24:04;;;;;;;10.43;8.77;;;;;;;;;;5025689;28;21213;-77
2023/01/29 00:26:31;;;;;;;11.37;9.23;;;;;;;;;;5051669;28;20221;-76
2023/01/29 00:29:00;;;;;;;13.23;9.23;;;;;;;;;;5049737;28;20197;-77
2023/01/29 00:31:28;;;;;;;14.53;10.30;;;;;;;;;;5070943;28;20294;-77
2023/01/29 00:33:56;;;;;;;11.93;9.40;;;;;;;;;;5069448;28;20622;-79
2023/01/29 00:36:23;;;;;;;14.17;9.33;;;;;;;;;;5075183;28;20200;-76
2023/01/29 00:38:57;;;;;;;13.60;9.73;;;;;;;;;;5053261;28;20444;-77
2023/01/29 00:47:04;;;;;;;11.00;8.70;;;;;;;;;;5042455;28;20215;-76
2023/01/29 00:49:31;;;;;;;9.63;7.90;;;;;;;;;;5051122;28;20213;-77
2023/01/29 00:54:44;;;;;;;10.80;8.17;;;;;;;;;;5049493;28;20212;-75
2023/01/29 00:57:11;;;;;;;10.50;8.40;;;;;;;;;;5047997;28;20699;-78
2023/01/29 00:59:39;;;;;;;12.70;9.47;;;;;;;;;;5050246;28;20221;-75
2023/01/29 01:04:52;;;;;;;11.77;8.63;;;;;;;;;;5043539;28;20249;-77
2023/01/29 01:07:19;;;;;;;10.40;8.73;;;;;;;;;;5051080;28;20208;-77
2023/01/29 01:12:33;;;;;;;11.40;9.03;;;;;;;;;;5046689;28;20737;-74
2023/01/29 01:15:03;;;;;;;13.43;9.73;;;;;;;;;;5047514;28;20217;-76
2023/01/29 01:17:31;;;;;;;12.40;9.53;;;;;;;;;;5024038;28;20855;-79
2023/01/29 01:19:58;;;;;;;12.47;9.60;;;;;;;;;;5046192;28;20201;-76
2023/01/29 01:22:26;;;;;;;11.87;8.87;;;;;;;;;;5041288;28;20316;-76
2023/01/29 01:24:53;;;;;;;12.03;8.97;;;;;;;;;;5044097;28;20225;-76
2023/01/29 01:27:25;;;;;;;11.30;8.70;;;;;;;;;;5042491;28;20210;-75
2023/01/29 01:29:53;;;;;;;11.57;8.73;;;;;;;;;;5047029;28;20702;-76
2023/01/29 01:32:20;;;;;;;11.90;9.27;;;;;;;;;;5047652;28;20221;-76
2023/01/29 01:34:47;;;;;;;11.43;8.90;;;;;;;;;;5047590;28;20261;-78
2023/01/29 01:37:15;;;;;;;12.87;9.80;;;;;;;;;;5050584;28;20212;-79
2023/01/29 01:39:47;;;;;;;13.67;9.60;;;;;;;;;;5046550;28;20212;-77
2023/01/29 01:42:14;;;;;;;14.10;9.63;;;;;;;;;;5053745;28;20233;-77
2023/01/29 01:44:53;;;;;;;11.87;9.57;;;;;;;;;;5047335;28;20235;-79
2023/01/29 01:47:24;;;;;;;10.83;8.67;;;;;;;;;;5044130;28;21152;-77
2023/01/29 01:49:52;;;;;;;11.47;8.77;;;;;;;;;;5059354;28;20210;-78
2023/01/29 01:52:20;;;;;;;11.57;8.70;;;;;;;;;;5063930;28;20300;-78
2023/01/29 01:54:47;;;;;;;11.37;8.67;;;;;;;;;;5063455;28;20213;-75
2023/01/29 01:57:23;;;;;;;11.23;8.93;;;;;;;;;;5061174;28;20267;-78
2023/01/29 01:59:56;;;;;;;13.90;9.50;;;;;;;;;;5053970;28;20206;-75
2023/01/29 02:10:45;;;;;;;12.13;8.93;;;;;;;;;;5045735;28;20220;-76
2023/01/29 02:13:15;;;;;;;10.93;8.13;;;;;;;;;;5049984;28;20220;-77
2023/01/29 02:15:45;;;;;;;12.23;9.57;;;;;;;;;;5047646;28;20201;-75
2023/01/29 02:18:13;;;;;;;11.47;8.93;;;;;;;;;;5049588;28;20202;-79
2023/01/29 02:20:42;;;;;;;11.23;8.87;;;;;;;;;;5046412;28;20220;-77
2023/01/29 02:23:09;;;;;;;11.53;8.60;;;;;;;;;;5033564;28;20352;-77
2023/01/29 02:25:55;;;;;;;10.47;8.00;;;;;;;;;;5026414;28;20231;-74
2023/01/29 02:28:39;;;;;;;10.87;7.77;;;;;;;;;;5045844;28;20209;-78
2023/01/29 02:31:18;;;;;;;12.63;8.37;;;;;;;;;;5068945;28;20622;-77
2023/01/29 02:34:04;;;;;;;10.50;8.17;;;;;;;;;;5061706;28;20201;-78
2023/01/29 02:36:58;;;;;;;10.13;8.23;;;;;;;;;;5059368;28;20219;-77
2023/01/29 02:39:38;;;;;;;10.53;8.23;;;;;;;;;;5050396;28;20216;-78
2023/01/29 02:42:14;;;;;;;9.37;7.77;;;;;;;;;;5039065;28;20243;-77
2023/01/29 02:44:51;;;;;;;10.03;7.80;;;;;;;;;;5022381;28;20286;-75
2023/01/29 02:47:21;;;;;;;11.43;8.03;;;;;;;;;;5040616;28;20339;-76
2023/01/29 02:50:07;;;;;;;8.40;7.50;;;;;;;;;;5043464;28;20236;-75
2023/01/29 02:52:55;;;;;;;8.53;7.00;;;;;;;;;;5042857;28;20278;-78
2023/01/29 02:55:25;;;;;;;8.13;7.03;;;;;;;;;;5044822;28;20728;-76
2023/01/29 02:57:56;;;;;;;8.33;7.03;;;;;;;;;;5029771;28;20205;-78
2023/01/29 03:00:26;;;;;;;7.70;6.90;;;;;;;;;;5043427;28;20207;-76
2023/01/29 03:03:00;;;;;;;8.43;7.03;;;;;;;;;;5047630;28;20231;-74
2023/01/29 03:05:32;;;;;;;10.47;8.17;;;;;;;;;;5048532;28;20653;-74
2023/01/29 03:08:06;;;;;;;9.07;7.47;;;;;;;;;;5046977;28;22986;-76
2023/01/29 03:10:39;;;;;;;9.07;7.73;;;;;;;;;;5051443;28;20265;-75
2023/01/29 03:13:30;;;;;;;9.70;7.80;;;;;;;;;;5054722;28;20204;-77
2023/01/29 03:16:04;;;;;;;8.77;7.50;;;;;;;;;;5036017;28;23111;-76
2023/01/29 03:18:35;;;;;;;7.93;6.87;;;;;;;;;;5049393;28;20215;-76
2023/01/29 03:21:49;;;;;;;9.57;7.23;;;;;;;;;;5046682;28;20236;-78
2023/01/29 03:32:19;;;;;;;9.83;8.07;;;;;;;;;;5044555;28;20232;-76
2023/01/29 03:34:50;;;;;;;12.03;8.80;;;;;;;;;;5049915;28;20797;-77
2023/01/29 03:37:23;;;;;;;11.03;8.77;;;;;;;;;;5045697;28;20752;-77
2023/01/29 03:39:51;;;;;;;10.53;8.40;;;;;;;;;;5044416;28;20204;-76
2023/01/29 03:42:21;;;;;;;9.80;8.07;;;;;;;;;;5048412;28;20236;-77
2023/01/29 03:44:53;;;;;;;10.20;8.50;;;;;;;;;;5029414;28;20231;-78
2023/01/29 03:47:22;;;;;;;9.40;8.00;;;;;;;;;;5048663;28;20291;-77
2023/01/29 03:49:57;;;;;;;11.83;8.70;;;;;;;;;;5046393;28;20712;-77
2023/01/29 03:52:43;;;;;;;11.13;8.77;;;;;;;;;;5027902;28;20234;-76
2023/01/29 03:55:17;;;;;;;9.80;8.17;;;;;;;;;;5043600;28;20715;-76
2023/01/29 03:58:05;;;;;;;12.07;8.60;;;;;;;;;;5048496;28;20219;-76
2023/01/29 04:00:38;;;;;;;10.07;7.93;;;;;;;;;;5046289;28;20216;-78
2023/01/29 04:03:10;;;;;;;7.97;6.93;;;;;;;;;;5028068;28;20280;-77
2023/01/29 04:05:43;;;;;;;9.27;7.80;;;;;;;;;;5038784;28;20761;-77
2023/01/29 04:08:14;;;;;;;9.73;7.70;;;;;;;;;;5031248;28;20553;-76
2023/01/29 04:10:42;;;;;;;9.97;7.80;;;;;;;;;;5045536;28;20586;-76
2023/01/29 04:13:10;;;;;;;9.93;7.60;;;;;;;;;;5050312;28;20697;-76
2023/01/29 04:16:05;;;;;;;9.60;7.47;;;;;;;;;;5040855;28;20216;-77
2023/01/29 04:18:33;;;;;;;6.63;5.93;;;;;;;;;;5043605;28;20205;-77
2023/01/29 04:21:00;;;;;;;9.67;7.77;;;;;;;;;;5005698;28;1151342;-75
2023/01/29 04:23:28;;;;;;;8.77;7.17;;;;;;;;;;5044470;28;20215;-76
2023/01/29 04:26:20;;;;;;;8.53;7.63;;;;;;;;;;5048650;28;20231;-77
2023/01/29 04:28:59;;;;;;;10.03;8.10;;;;;;;;;;4999399;28;20309;-75
2023/01/29 04:31:33;;;;;;;7.77;6.40;;;;;;;;;;5065534;28;20323;-76
2023/01/29 04:34:15;;;;;;;10.47;7.27;;;;;;;;;;5065916;28;20209;-77
2023/01/29 04:36:58;;;;;;;7.20;6.20;;;;;;;;;;5061126;28;20566;-76
2023/01/29 04:39:30;;;;;;;6.87;5.93;;;;;;;;;;5038791;28;20296;-77
2023/01/29 04:42:00;;;;;;;6.77;5.63;;;;;;;;;;5047806;28;20243;-78
2023/01/29 04:44:27;;;;;;;6.40;5.77;;;;;;;;;;5047787;28;20229;-78
2023/01/29 04:47:05;;;;;;;5.97;5.37;;;;;;;;;;5047815;28;20201;-77
2023/01/29 04:49:33;;;;;;;5.97;5.37;;;;;;;;;;5042647;28;20204;-75
2023/01/29 04:52:17;;;;;;;6.00;5.40;;;;;;;;;;5047075;28;20221;-78
2023/01/29 04:54:56;;;;;;;5.97;5.37;;;;;;;;;;5043058;28;20217;-75
2023/01/29 04:57:33;;;;;;;6.40;5.47;;;;;;;;;;5047117;28;20197;-75
2023/01/29 05:00:06;;;;;;;6.27;5.20;;;;;;;;;;5047127;28;20216;-77
2023/01/29 05:02:35;;;;;;;5.73;5.10;;;;;;;;;;5028170;28;20232;-76
2023/01/29 05:05:04;;;;;;;7.00;5.60;;;;;;;;;;5048359;28;20290;-76
2023/01/29 05:07:33;;;;;;;6.97;6.27;;;;;;;;;;5047577;28;20201;-77
2023/01/29 05:10:00;;;;;;;5.80;5.20;;;;;;;;;;5040748;28;20741;-77
2023/01/29 05:12:28;;;;;;;6.67;5.67;;;;;;;;;;5048323;28;20260;-78
2023/01/29 05:14:57;;;;;;;6.40;5.60;;;;;;;;;;5043000;28;20870;-74
2023/01/29 05:17:25;;;;;;;6.37;5.77;;;;;;;;;;5037686;28;20307;-78
2023/01/29 05:19:52;;;;;;;5.70;5.20;;;;;;;;;;5040739;28;20220;-75
2023/01/29 05:22:21;;;;;;;6.20;5.50;;;;;;;;;;5049475;28;20790;-77
2023/01/29 05:24:49;;;;;;;5.97;5.37;;;;;;;;;;5046174;28;20225;-77
2023/01/29 05:30:06;;;;;;;7.00;6.10;;;;;;;;;;5048471;28;20189;-77
2023/01/29 05:32:33;;;;;;;6.87;6.00;;;;;;;;;;5044351;28;20294;-76
2023/01/29 05:35:00;;;;;;;7.80;6.93;;;;;;;;;;5050050;28;20274;-74
2023/01/29 05:37:28;;;;;;;6.87;6.17;;;;;;;;;;5027371;28;20303;-77
2023/01/29 05:39:55;;;;;;;8.70;7.20;;;;;;;;;;5045137;28;20219;-76
2023/01/29 05:42:23;;;;;;;7.47;6.30;;;;;;;;;;5047183;28;20300;-77
2023/01/29 05:44:50;;;;;;;7.00;6.30;;;;;;;;;;5051910;28;20256;-75
2023/01/29 05:47:20;;;;;;;8.03;6.93;;;;;;;;;;5047667;28;20208;-77
2023/01/29 05:49:47;;;;;;;7.03;5.83;;;;;;;;;;5065744;28;23201;-77
2023/01/29 05:52:15;;;;;;;6.77;6.07;;;;;;;;;;5069407;28;20232;-77
2023/01/29 05:54:42;;;;;;;6.33;5.50;;;;;;;;;;5048371;28;20212;-76
2023/01/29 05:57:09;;;;;;;6.63;5.93;;;;;;;;;;5059531;28;20204;-75
2023/01/29 05:59:36;;;;;;;6.60;5.93;;;;;;;;;;5044822;28;20206;-77
2023/01/29 06:02:03;;;;;;;7.13;6.43;;;;;;;;;;5047250;28;20350;-76
2023/01/29 06:04:31;;;;;;;6.50;5.70;;;;;;;;;;5050947;28;20212;-77
2023/01/29 06:06:58;;;;;;;8.83;6.20;;;;;;;;;;5044652;28;20354;-75
2023/01/29 06:09:25;;;;;;;7.53;6.57;;;;;;;;;;5044688;28;24461;-77
2023/01/29 06:11:52;;;;;;;8.80;7.07;;;;;;;;;;5044440;28;20225;-78
2023/01/29 06:14:19;;;;;;;6.93;6.23;;;;;;;;;;5052196;28;20239;-77
2023/01/29 06:16:47;;;;;;;6.83;6.03;;;;;;;;;;5026330;28;20208;-77
2023/01/29 06:19:14;;;;;;;6.83;6.10;;;;;;;;;;5047015;28;20213;-77
2023/01/29 06:21:41;;;;;;;6.77;6.17;;;;;;;;;;5043835;28;20245;-74
2023/01/29 06:24:08;;;;;;;6.33;5.73;;;;;;;;;;5044842;28;20208;-75
2023/01/29 06:26:36;;;;;;;6.90;6.20;;;;;;;;;;5043712;28;20619;-75
2023/01/29 06:29:04;;;;;;;8.43;7.53;;;;;;;;;;5056266;28;20295;-76
2023/01/29 06:31:31;;;;;;;9.53;7.87;;;;;;;;;;5060258;28;20246;-77
2023/01/29 06:34:06;;;;;;;9.33;8.07;;;;;;;;;;5058009;28;20728;-77
2023/01/29 06:36:33;;;;;;;8.93;7.97;;;;;;;;;;5056299;28;20318;-76
2023/01/29 06:39:00;;;;;;;8.03;7.00;;;;;;;;;;5054824;28;20373;-77
2023/01/29 06:41:27;;;;;;;7.80;6.87;;;;;;;;;;5053834;28;20231;-76
2023/01/29 06:43:55;;;;;;;8.67;7.77;;;;;;;;;;5055331;28;20267;-76
2023/01/29 06:46:22;;;;;;;9.40;8.10;;;;;;;;;;5057278;28;20223;-75
2023/01/29 06:48:49;;;;;;;10.40;8.03;;;;;;;;;;5056138;28;20203;-77
2023/01/29 06:51:16;;;;;;;10.20;8.30;;;;;;;;;;5068389;28;20216;-78
2023/01/29 06:53:43;;;;;;;8.93;8.03;;;;;;;;;;5063032;28;20205;-77
2023/01/29 06:56:12;;;;;;;9.73;8.37;;;;;;;;;;5060232;28;20218;-76
2023/01/29 06:58:40;;;;;;;13.57;10.13;;;;;;;;;;5055208;28;20209;-77
2023/01/29 07:01:08;;;;;;;9.10;8.20;;;;;;;;;;5058877;28;20229;-78
2023/01/29 07:03:36;;;;;;;10.97;8.93;;;;;;;;;;5061453;28;20664;-75
2023/01/29 07:06:03;;;;;;;11.13;8.63;;;;;;;;;;5057966;28;20231;-76
2023/01/29 07:08:30;;;;;;;20.67;13.13;;;;;;;;;;5059478;28;20328;-77
2023/01/29 07:10:59;;;;;;;12.77;10.63;;;;;;;;;;5059005;28;20243;-77
2023/01/29 07:13:26;;;;;;;13.43;10.57;;;;;;;;;;5058371;28;20638;-75
2023/01/29 07:15:54;;;;;;;23.17;16.80;;;;;;;;;;5058217;28;20218;-77
2023/01/29 07:18:21;;;;;;;18.53;13.50;;;;;;;;;;5060480;28;20215;-76
2023/01/29 07:20:48;;;;;;;13.47;10.60;;;;;;;;;;5060659;28;20588;-77
2023/01/29 07:23:16;;;;;;;17.23;13.37;;;;;;;;;;5058386;28;20232;-77
2023/01/29 07:25:43;;;;;;;16.87;13.50;;;;;;;;;;5058378;28;20584;-76
2023/01/29 07:28:10;;;;;;;16.73;12.57;;;;;;;;;;5059494;28;20196;-78
2023/01/29 07:30:38;;;;;;;16.43;12.57;;;;;;;;;;5059044;28;20300;-78
2023/01/29 07:33:07;;;;;;;15.97;12.27;;;;;;;;;;5056404;28;20207;-76
2023/01/29 07:35:41;;;;;;;13.17;10.87;;;;;;;;;;5054976;28;20575;-78
2023/01/29 07:38:09;;;;;;;12.37;9.70;;;;;;;;;;5064517;28;20735;-77
2023/01/29 07:40:36;;;;;;;11.87;9.47;;;;;;;;;;5057580;28;20576;-77
2023/01/29 07:43:05;;;;;;;18.17;15.00;;;;;;;;;;5066488;28;20250;-76
2023/01/29 07:45:33;;;;;;;14.67;12.00;;;;;;;;;;5060443;28;20323;-77
2023/01/29 07:48:00;;;;;;;16.03;13.07;;;;;;;;;;5059594;28;20212;-78
2023/01/29 07:50:28;;;;;;;16.27;12.07;;;;;;;;;;5062921;28;20674;-78
2023/01/29 07:52:55;;;;;;;18.83;15.80;;;;;;;;;;5064913;28;20316;-79
2023/01/29 07:55:22;;;;;;;13.13;10.50;;;;;;;;;;5064455;28;20246;-78
2023/01/29 07:57:56;;;;;;;14.03;11.67;;;;;;;;;;5064124;28;20216;-78
2023/01/29 08:00:24;;;;;;;16.37;12.87;;;;;;;;;;5061368;28;20567;-78
2023/01/29 08:02:51;;;;;;;15.47;12.87;;;;;;;;;;5073193;28;20314;-76
2023/01/29 08:05:18;;;;;;;17.20;12.90;;;;;;;;;;5072674;28;20267;-76
2023/01/29 08:07:45;;;;;;;16.77;12.93;;;;;;;;;;5067706;28;20277;-78
2023/01/29 08:10:23;;;;;;;15.30;11.07;;;;;;;;;;5068784;28;20207;-77
2023/01/29 08:12:57;;;;;;;14.57;10.90;;;;;;;;;;5070157;28;20230;-78
2023/01/29 08:15:25;;;;;;;14.97;11.70;;;;;;;;;;5062706;28;20229;-78
2023/01/29 08:17:52;;;;;;;14.53;11.00;;;;;;;;;;5064592;28;20213;-77
2023/01/29 08:20:24;;;;;;;12.93;11.43;;;;;;;;;;5065941;28;20205;-75
2023/01/29 08:22:59;;;;;;;12.40;10.33;;;;;;;;;;5061929;28;20251;-78
2023/01/29 08:25:27;;;;;;;15.50;11.17;;;;;;;;;;5068889;28;20244;-76
2023/01/29 08:27:56;;;;;;;10.43;9.10;;;;;;;;;;5068042;28;20618;-77
2023/01/29 08:30:23;;;;;;;11.77;9.63;;;;;;;;;;5067155;28;20482;-76
2023/01/29 08:32:50;;;;;;;9.87;8.73;;;;;;;;;;5060330;28;20233;-77
2023/01/29 08:35:17;;;;;;;10.40;8.90;;;;;;;;;;5065752;28;20568;-76
2023/01/29 08:37:51;;;;;;;11.90;9.77;;;;;;;;;;5063803;28;20570;-78
2023/01/29 08:40:19;;;;;;;12.00;10.70;;;;;;;;;;5060491;28;21470;-78
2023/01/29 08:42:46;;;;;;;11.47;9.73;;;;;;;;;;5057054;28;20231;-78
2023/01/29 08:45:13;;;;;;;11.90;10.70;;;;;;;;;;5060862;28;20300;-77
2023/01/29 08:47:47;;;;;;;15.30;13.73;;;;;;;;;;5056327;28;20275;-78
2023/01/29 08:50:15;;;;;;;12.90;11.50;;;;;;;;;;5066229;28;20193;-79
2023/01/29 08:52:43;;;;;;;12.10;10.10;;;;;;;;;;5064711;28;20662;-78
2023/01/29 08:55:11;;;;;;;11.73;9.43;;;;;;;;;;5068709;28;20201;-79
2023/01/29 08:57:39;;;;;;;10.33;8.87;;;;;;;;;;5065212;28;20204;-79
2023/01/29 09:00:08;;;;;;;10.00;8.77;;;;;;;;;;5064498;28;20197;-77
2023/01/29 09:02:35;;;;;;;9.47;8.47;;;;;;;;;;5066334;28;20226;-79
2023/01/29 09:05:02;;;;;;;10.27;8.67;;;;;;;;;;5062974;28;20197;-75
2023/01/29 09:07:29;;;;;;;9.90;8.37;;;;;;;;;;5063618;28;20232;-76
2023/01/29 09:09:57;;;;;;;11.90;10.60;;;;;;;;;;5067720;28;20205;-76
2023/01/29 09:12:24;;;;;;;10.53;9.23;;;;;;;;;;5061202;28;20218;-77
2023/01/29 09:14:51;;;;;;;16.33;12.03;;;;;;;;;;5066829;28;20244;-77
2023/01/29 09:17:18;;;;;;;11.13;9.17;;;;;;;;;;5056833;28;20309;-76
2023/01/29 09:19:45;;;;;;;13.73;10.53;;;;;;;;;;5060606;28;20209;-76
2023/01/29 09:22:13;;;;;;;16.50;14.90;;;;;;;;;;5064389;28;20231;-76
2023/01/29 09:24:40;;;;;;;10.50;9.20;;;;;;;;;;5055453;28;20669;-78
2023/01/29 09:27:08;;;;;;;10.60;8.57;;;;;;;;;;5060840;28;20317;-77
2023/01/29 09:29:36;;;;;;;9.97;8.20;;;;;;;;;;5060895;28;20255;-78
2023/01/29 09:32:04;;;;;;;11.13;8.83;;;;;;;;;;5067973;28;20225;-76
2023/01/29 09:34:33;;;;;;;10.57;8.57;;;;;;;;;;5056813;28;20226;-77
2023/01/29 09:37:00;;;;;;;9.90;8.53;;;;;;;;;;5058657;28;20247;-78
2023/01/29 09:39:27;;;;;;;9.67;8.40;;;;;;;;;;5061386;28;20260;-76
2023/01/29 09:42:09;;;;;;;9.07;8.17;;;;;;;;;;5069789;28;20233;-76
2023/01/29 09:44:48;;;;;;;10.63;8.53;;;;;;;;;;5072535;28;20288;-78
2023/01/29 09:47:16;;;;;;;11.17;8.67;;;;;;;;;;5057935;28;20221;-76
2023/01/29 09:49:49;;;;;;;11.80;8.53;;;;;;;;;;5056447;28;22835;-77
2023/01/29 09:52:20;;;;;;;9.67;8.40;;;;;;;;;;5060583;28;20307;-77
2023/01/29 09:54:53;;;;;;;11.20;8.43;;;;;;;;;;5059185;28;20659;-76
2023/01/29 09:57:24;;;;;;;10.60;8.90;;;;;;;;;;5054301;28;20670;-77
2023/01/29 09:59:51;;;;;;;11.20;9.07;;;;;;;;;;5055554;28;20263;-75
2023/01/29 10:02:37;;;;;;;9.07;8.17;;;;;;;;;;5057771;28;20217;-77
2023/01/29 10:05:07;;;;;;;9.70;8.70;;;;;;;;;;5060182;28;20213;-77
2023/01/29 10:07:55;;;;;;;8.77;7.90;;;;;;;;;;5058295;28;20233;-78
2023/01/29 10:10:28;;;;;;;9.63;8.63;;;;;;;;;;5061572;28;20590;-76
2023/01/29 10:13:00;;;;;;;10.50;8.73;;;;;;;;;;5064939;28;20576;-77
2023/01/29 10:15:46;;;;;;;10.93;8.57;;;;;;;;;;5057691;28;20205;-78
2023/01/29 10:18:22;;;;;;;14.33;10.13;;;;;;;;;;5057680;28;20196;-75
2023/01/29 10:20:49;;;;;;;8.93;7.97;;;;;;;;;;5059596;28;20258;-79
2023/01/29 10:23:34;;;;;;;11.20;8.77;;;;;;;;;;5057674;28;20204;-76
2023/01/29 10:26:01;;;;;;;11.47;9.00;;;;;;;;;;5063154;28;20225;-77
2023/01/29 10:28:49;;;;;;;10.93;9.10;;;;;;;;;;5055718;28;20360;-78
2023/01/29 10:31:31;;;;;;;13.03;10.10;;;;;;;;;;5056620;28;20660;-78
2023/01/29 10:34:04;;;;;;;13.00;11.63;;;;;;;;;;5055178;28;20235;-79
2023/01/29 10:36:33;;;;;;;9.73;8.53;;;;;;;;;;5058531;28;20301;-78
2023/01/29 10:39:00;;;;;;;10.93;9.83;;;;;;;;;;5055658;28;20224;-76
2023/01/29 10:41:48;;;;;;;13.83;11.23;;;;;;;;;;5058256;28;20232;-78
2023/01/29 10:44:34;;;;;;;10.90;9.50;;;;;;;;;;5057322;28;20240;-78
2023/01/29 10:47:07;;;;;;;9.53;8.63;;;;;;;;;;5051604;28;20218;-78
2023/01/29 10:49:40;;;;;;;12.70;11.13;;;;;;;;;;5059118;28;20201;-78
2023/01/29 10:52:13;;;;;;;12.30;11.00;;;;;;;;;;5070659;28;20217;-77
2023/01/29 10:54:59;;;;;;;17.63;13.50;;;;;;;;;;5033889;28;20197;-76
2023/01/29 10:57:26;;;;;;;10.13;8.87;;;;;;;;;;5053029;28;20235;-74
2023/01/29 10:59:53;;;;;;;10.33;9.00;;;;;;;;;;5055851;28;20206;-77
2023/01/29 11:02:21;;;;;;;10.73;7.93;;;;;;;;;;5044603;28;20252;-75
2023/01/29 11:04:49;;;;;;;8.83;7.93;;;;;;;;;;5036032;28;20496;-78
2023/01/29 11:07:17;;;;;;;12.83;11.50;;;;;;;;;;5032798;28;20235;-75
2023/01/29 11:10:03;;;;;;;10.47;8.73;;;;;;;;;;5042005;28;20597;-78
2023/01/29 11:12:32;;;;;;;10.30;8.90;;;;;;;;;;5015370;28;20225;-76
2023/01/29 11:15:07;;;;;;;9.90;8.67;;;;;;;;;;5034652;28;20209;-77
2023/01/29 11:17:34;;;;;;;12.87;10.90;;;;;;;;;;5042079;28;20670;-77
2023/01/29 11:20:02;;;;;;;11.30;9.27;;;;;;;;;;5049608;28;20213;-78
2023/01/29 11:22:30;;;;;;;8.90;8.00;;;;;;;;;;5049292;28;20781;-77
2023/01/29 11:25:11;;;;;;;9.83;8.03;;;;;;;;;;5032341;28;20289;-78
2023/01/29 11:27:46;;;;;;;9.30;8.23;;;;;;;;;;5056075;28;20235;-77
2023/01/29 11:30:19;;;;;;;9.13;8.00;;;;;;;;;;5055524;28;20200;-75
2023/01/29 11:32:50;;;;;;;10.00;8.23;;;;;;;;;;5073656;28;20220;-78
2023/01/29 11:35:17;;;;;;;9.80;8.63;;;;;;;;;;5076259;28;20277;-77
2023/01/29 11:37:45;;;;;;;11.57;8.73;;;;;;;;;;5066348;28;20212;-76
2023/01/29 11:40:19;;;;;;;10.40;8.50;;;;;;;;;;5071160;28;20229;-75
2023/01/29 11:42:46;;;;;;;10.43;8.93;;;;;;;;;;5045125;28;20248;-76
2023/01/29 11:45:20;;;;;;;9.50;8.07;;;;;;;;;;5066500;28;20233;-79
2023/01/29 11:47:54;;;;;;;14.27;10.97;;;;;;;;;;5055466;28;20228;-77
2023/01/29 11:50:28;;;;;;;9.37;8.37;;;;;;;;;;5054535;28;20594;-78
2023/01/29 11:52:56;;;;;;;11.37;9.23;;;;;;;;;;5057781;28;20220;-77
2023/01/29 11:55:26;;;;;;;14.03;11.50;;;;;;;;;;5053905;28;20202;-77
2023/01/29 11:58:00;;;;;;;17.43;13.57;;;;;;;;;;5059440;28;20213;-77
2023/01/29 12:00:31;;;;;;;11.80;9.97;;;;;;;;;;5060771;28;20750;-77
2023/01/29 12:03:14;;;;;;;11.20;9.80;;;;;;;;;;5065862;28;20228;-76
2023/01/29 12:05:52;;;;;;;18.83;13.93;;;;;;;;;;5065014;28;20309;-77
2023/01/29 12:08:21;;;;;;;9.83;8.80;;;;;;;;;;5080923;28;20768;-77
2023/01/29 12:10:48;;;;;;;12.60;9.80;;;;;;;;;;5060706;28;20207;-80
2023/01/29 12:13:35;;;;;;;12.00;9.70;;;;;;;;;;5061168;28;20201;-77
2023/01/29 12:16:21;;;;;;;9.77;8.10;;;;;;;;;;5054059;28;20198;-78
2023/01/29 12:18:52;;;;;;;9.93;8.93;;;;;;;;;;5055638;28;20210;-77
2023/01/29 12:21:23;;;;;;;11.00;8.67;;;;;;;;;;5035997;28;20232;-77
2023/01/29 12:24:11;;;;;;;10.70;9.17;;;;;;;;;;5057367;28;20200;-76
2023/01/29 12:26:43;;;;;;;10.80;8.50;;;;;;;;;;5057715;28;20255;-76
2023/01/29 12:29:17;;;;;;;11.00;8.83;;;;;;;;;;5054576;28;20255;-76
2023/01/29 12:31:58;;;;;;;7.90;7.10;;;;;;;;;;5059094;28;20255;-78
2023/01/29 12:34:31;;;;;;;11.50;9.93;;;;;;;;;;5060796;28;20202;-77
2023/01/29 12:37:01;;;;;;;9.87;7.83;;;;;;;;;;5059078;28;20292;-77
2023/01/29 12:39:28;;;;;;;10.80;8.47;;;;;;;;;;5053656;28;20205;-78
2023/01/29 12:42:03;;;;;;;13.33;8.90;;;;;;;;;;5056447;28;20713;-77
2023/01/29 12:44:40;;;;;;;10.37;8.37;;;;;;;;;;5055949;28;20201;-77
2023/01/29 12:47:13;;;;;;;10.00;8.97;;;;;;;;;;5060647;28;20232;-78
2023/01/29 12:49:46;;;;;;;10.87;8.10;;;;;;;;;;5060948;28;20789;-78
2023/01/29 12:52:18;;;;;;;11.47;8.40;;;;;;;;;;5060653;28;20228;-77
2023/01/29 12:55:00;;;;;;;9.30;8.30;;;;;;;;;;5061632;28;20297;-77
2023/01/29 12:57:40;;;;;;;10.00;8.83;;;;;;;;;;5064205;28;20204;-77
2023/01/29 13:00:20;;;;;;;10.93;8.87;;;;;;;;;;5063920;28;20223;-78
2023/01/29 13:03:03;;;;;;;13.03;9.47;;;;;;;;;;5063114;28;20237;-77
2023/01/29 13:05:49;;;;;;;13.03;10.47;;;;;;;;;;5066341;28;20201;-76
2023/01/29 13:08:36;;;;;;;11.23;9.63;;;;;;;;;;5066177;28;20312;-78
2023/01/29 13:11:07;;;;;;;13.57;9.83;;;;;;;;;;5058458;28;20217;-77
2023/01/29 13:13:36;;;;;;;10.80;9.10;;;;;;;;;;5061302;28;20289;-77
2023/01/29 13:16:06;;;;;;;13.00;10.30;;;;;;;;;;5065488;28;20198;-77
2023/01/29 13:18:40;;;;;;;11.77;10.53;;;;;;;;;;5061783;28;20206;-78
2023/01/29 13:21:13;;;;;;;12.60;9.73;;;;;;;;;;5049040;28;20330;-79
2023/01/29 13:23:43;;;;;;;11.17;9.53;;;;;;;;;;5055922;28;20210;-78
2023/01/29 13:26:10;;;;;;;11.93;10.13;;;;;;;;;;5058466;28;20327;-79
2023/01/29 13:28:43;;;;;;;12.83;9.60;;;;;;;;;;5062270;28;20218;-77
2023/01/29 13:31:31;;;;;;;12.87;11.03;;;;;;;;;;5061177;28;20243;-77
2023/01/29 13:34:17;;;;;;;12.20;9.97;;;;;;;;;;5062782;28;20307;-78
2023/01/29 13:36:49;;;;;;;13.87;11.10;;;;;;;;;;5062538;28;20248;-77
2023/01/29 13:39:20;;;;;;;21.57;15.30;;;;;;;;;;5060697;28;20206;-76
2023/01/29 13:41:47;;;;;;;11.70;10.10;;;;;;;;;;5060490;28;20588;-76
2023/01/29 13:44:20;;;;;;;11.47;9.30;;;;;;;;;;5067107;28;20269;-78
2023/01/29 13:46:49;;;;;;;11.20;9.13;;;;;;;;;;5060381;28;20222;-77
2023/01/29 13:49:32;;;;;;;10.87;9.20;;;;;;;;;;5057003;28;20193;-77
2023/01/29 13:52:12;;;;;;;11.30;9.57;;;;;;;;;;5057205;28;20752;-78
2023/01/29 13:54:40;;;;;;;16.70;11.40;;;;;;;;;;5057078;28;20198;-78
2023/01/29 13:57:27;;;;;;;11.80;9.80;;;;;;;;;;5064631;28;20209;-78
2023/01/29 13:59:56;;;;;;;13.83;10.57;;;;;;;;;;5061014;28;20352;-76
2023/01/29 14:02:25;;;;;;;12.87;9.73;;;;;;;;;;5058130;28;20232;-77
2023/01/29 14:05:12;;;;;;;11.67;10.00;;;;;;;;;;5059717;28;20202;-77
2023/01/29 14:07:43;;;;;;;12.87;9.93;;;;;;;;;;5054626;28;20233;-78
2023/01/29 14:10:13;;;;;;;12.37;9.60;;;;;;;;;;5060214;28;20203;-79
2023/01/29 14:12:41;;;;;;;13.63;10.10;;;;;;;;;;5057482;28;20221;-78
2023/01/29 14:15:15;;;;;;;12.87;10.50;;;;;;;;;;5062080;28;20213;-78
2023/01/29 14:18:05;;;;;;;13.77;10.00;;;;;;;;;;5059190;28;20218;-79
2023/01/29 14:20:36;;;;;;;12.63;9.97;;;;;;;;;;5058625;28;20709;-78
2023/01/29 14:23:40;;;;;;;20.17;14.13;;;;;;;;;;5059834;28;20682;-76
2023/01/29 14:26:28;;;;;;;11.77;9.13;;;;;;;;;;5055458;28;20230;-77
2023/01/29 14:29:25;;;;;;;13.97;10.13;;;;;;;;;;5057160;28;20205;-79
2023/01/29 14:32:20;;;;;;;13.60;9.87;;;;;;;;;;5052975;28;20776;-76
2023/01/29 14:34:48;;;;;;;13.47;10.07;;;;;;;;;;5059899;28;20280;-78
2023/01/29 14:37:15;;;;;;;13.90;10.53;;;;;;;;;;5058307;28;20296;-77
2023/01/29 14:39:44;;;;;;;12.77;9.83;;;;;;;;;;5055162;28;20205;-78
2023/01/29 14:42:18;;;;;;;15.07;10.70;;;;;;;;;;5059910;28;20310;-76
2023/01/29 14:44:45;;;;;;;13.67;10.63;;;;;;;;;;5055094;28;20202;-80
2023/01/29 14:47:19;;;;;;;13.77;10.03;;;;;;;;;;5059949;28;20218;-75
2023/01/29 14:49:52;;;;;;;13.53;9.77;;;;;;;;;;5059485;28;20668;-77
2023/01/29 14:52:26;;;;;;;16.97;12.87;;;;;;;;;;5063611;28;20340;-75
2023/01/29 14:54:54;;;;;;;12.27;10.27;;;;;;;;;;5074435;28;20296;-76
2023/01/29 14:57:23;;;;;;;12.47;9.80;;;;;;;;;;5081724;28;20221;-76
2023/01/29 14:59:54;;;;;;;14.00;10.27;;;;;;;;;;5083180;28;20269;-77
2023/01/29 15:02:25;;;;;;;13.57;10.30;;;;;;;;;;5078357;28;20243;-79
2023/01/29 15:04:58;;;;;;;13.03;9.80;;;;;;;;;;5065578;28;20209;-78
2023/01/29 15:07:25;;;;;;;14.87;10.93;;;;;;;;;;5066818;28;20328;-79
2023/01/29 15:09:56;;;;;;;13.90;10.57;;;;;;;;;;5067330;28;20686;-77
2023/01/29 15:13:02;;;;;;;13.87;10.27;;;;;;;;;;5064474;28;20221;-78
2023/01/29 15:15:45;;;;;;;12.87;10.43;;;;;;;;;;5065815;28;20201;-78
2023/01/29 15:18:15;;;;;;;13.33;10.13;;;;;;;;;;5067594;28;20218;-78
2023/01/29 15:20:43;;;;;;;12.33;9.47;;;;;;;;;;5064053;28;20223;-78
2023/01/29 15:23:27;;;;;;;11.93;9.73;;;;;;;;;;5064647;28;20309;-78
2023/01/29 15:25:56;;;;;;;11.53;9.33;;;;;;;;;;5064204;28;20248;-79
2023/01/29 15:28:23;;;;;;;13.00;10.20;;;;;;;;;;5063274;28;20228;-77
2023/01/29 15:30:54;;;;;;;12.70;9.43;;;;;;;;;;5063566;28;20212;-79
2023/01/29 15:33:22;;;;;;;27.33;16.27;;;;;;;;;;5064476;28;20194;-79